sensor_id;sensor_type;location;lat;lon;timestamp;pressure;altitude;pressure_sealevel;temperature;humidity
76732;BME280;65656;51.130;13.658;2023-02-28T00:00:56;100731.44;;;-2.36;86.64
76732;BME280;65656;51.130;13.658;2023-02-28T00:04:57;100729.22;;;-2.31;86.10
76732;BME280;65656;51.130;13.658;2023-02-28T00:09:00;100731.75;;;-2.29;86.43
76732;BME280;65656;51.130;13.658;2023-02-28T00:13:04;100733.59;;;-2.30;86.22
76732;BME280;65656;51.130;13.658;2023-02-28T00:17:06;100728.38;;;-2.31;87.13
76732;BME280;65656;51.130;13.658;2023-02-28T00:21:07;100723.84;;;-2.31;87.38
76732;BME280;65656;51.130;13.658;2023-02-28T00:25:12;100722.84;;;-2.30;87.32
76732;BME280;65656;51.130;13.658;2023-02-28T00:29:14;100715.69;;;-2.19;89.72
76732;BME280;65656;51.130;13.658;2023-02-28T00:33:16;100721.03;;;-2.19;88.19
76732;BME280;65656;51.130;13.658;2023-02-28T00:37:18;100715.69;;;-2.19;87.23
76732;BME280;65656;51.130;13.658;2023-02-28T00:41:21;100725.00;;;-2.23;86.09
76732;BME280;65656;51.130;13.658;2023-02-28T00:45:22;100723.22;;;-2.44;87.92
76732;BME280;65656;51.130;13.658;2023-02-28T00:49:24;100726.34;;;-2.69;89.83
76732;BME280;65656;51.130;13.658;2023-02-28T00:53:25;100725.88;;;-2.74;90.69
76732;BME280;65656;51.130;13.658;2023-02-28T00:57:28;100723.66;;;-2.69;91.35
76732;BME280;65656;51.130;13.658;2023-02-28T01:01:30;100719.66;;;-2.75;89.16
76732;BME280;65656;51.130;13.658;2023-02-28T01:05:32;100709.78;;;-2.74;87.92
76732;BME280;65656;51.130;13.658;2023-02-28T01:09:33;100721.28;;;-2.93;88.86
76732;BME280;65656;51.130;13.658;2023-02-28T01:13:36;100711.63;;;-2.96;89.28
76732;BME280;65656;51.130;13.658;2023-02-28T01:17:38;100712.44;;;-3.05;89.50
76732;BME280;65656;51.130;13.658;2023-02-28T01:21:39;100716.88;;;-3.15;90.05
76732;BME280;65656;51.130;13.658;2023-02-28T01:25:41;100714.53;;;-3.29;91.58
76732;BME280;65656;51.130;13.658;2023-02-28T01:29:44;100704.31;;;-3.36;92.66
76732;BME280;65656;51.130;13.658;2023-02-28T01:33:46;100709.94;;;-3.39;93.74
76732;BME280;65656;51.130;13.658;2023-02-28T01:37:48;100710.22;;;-3.42;93.75
76732;BME280;65656;51.130;13.658;2023-02-28T01:41:49;100712.16;;;-3.44;92.51
76732;BME280;65656;51.130;13.658;2023-02-28T01:45:53;100709.03;;;-3.60;93.36
76732;BME280;65656;51.130;13.658;2023-02-28T01:49:55;100706.88;;;-3.66;92.93
76732;BME280;65656;51.130;13.658;2023-02-28T01:54:03;100703.47;;;-3.68;93.46
76732;BME280;65656;51.130;13.658;2023-02-28T01:58:07;100703.03;;;-3.73;93.75
76732;BME280;65656;51.130;13.658;2023-02-28T02:02:11;100702.03;;;-3.72;94.54
76732;BME280;65656;51.130;13.658;2023-02-28T02:06:13;100705.44;;;-3.70;95.61
76732;BME280;65656;51.130;13.658;2023-02-28T02:10:17;100699.06;;;-3.58;96.21
76732;BME280;65656;51.130;13.658;2023-02-28T02:18:50;100699.59;;;-3.64;96.25
76732;BME280;65656;51.130;13.658;2023-02-28T02:23:08;100699.31;;;-3.61;96.42
76732;BME280;65656;51.130;13.658;2023-02-28T02:27:20;100687.47;;;-3.79;94.87
76732;BME280;65656;51.130;13.658;2023-02-28T02:31:32;100690.16;;;-3.79;95.51
76732;BME280;65656;51.130;13.658;2023-02-28T02:35:43;100686.22;;;-3.75;96.47
76732;BME280;65656;51.130;13.658;2023-02-28T02:39:51;100688.91;;;-3.75;96.03
76732;BME280;65656;51.130;13.658;2023-02-28T02:43:56;100690.16;;;-3.79;96.50
76732;BME280;65656;51.130;13.658;2023-02-28T02:48:06;100686.47;;;-3.78;96.41
76732;BME280;65656;51.130;13.658;2023-02-28T02:52:13;100703.53;;;-3.90;95.56
76732;BME280;65656;51.130;13.658;2023-02-28T02:56:19;100701.63;;;-3.88;95.37
76732;BME280;65656;51.130;13.658;2023-02-28T03:00:25;100693.22;;;-3.95;95.38
76732;BME280;65656;51.130;13.658;2023-02-28T03:04:32;100696.50;;;-3.92;97.56
76732;BME280;65656;51.130;13.658;2023-02-28T03:08:38;100698.88;;;-3.77;98.31
76732;BME280;65656;51.130;13.658;2023-02-28T03:12:42;100696.84;;;-3.85;97.40
76732;BME280;65656;51.130;13.658;2023-02-28T03:17:23;100699.00;;;-4.11;96.03
76732;BME280;65656;51.130;13.658;2023-02-28T03:21:30;100694.13;;;-4.28;95.61
76732;BME280;65656;51.130;13.658;2023-02-28T03:25:39;100699.75;;;-4.31;96.26
76732;BME280;65656;51.130;13.658;2023-02-28T03:29:46;100702.44;;;-4.42;96.70
76732;BME280;65656;51.130;13.658;2023-02-28T03:33:53;100688.34;;;-4.56;96.90
76732;BME280;65656;51.130;13.658;2023-02-28T03:38:01;100696.63;;;-4.59;97.56
76732;BME280;65656;51.130;13.658;2023-02-28T03:42:09;100699.53;;;-4.73;96.98
76732;BME280;65656;51.130;13.658;2023-02-28T03:46:16;100703.88;;;-4.83;97.62
76732;BME280;65656;51.130;13.658;2023-02-28T03:50:22;100703.16;;;-4.96;98.35
76732;BME280;65656;51.130;13.658;2023-02-28T03:54:28;100709.94;;;-4.92;98.58
76732;BME280;65656;51.130;13.658;2023-02-28T03:58:39;100699.72;;;-5.10;97.77
76732;BME280;65656;51.130;13.658;2023-02-28T04:02:43;100707.34;;;-5.16;99.35
76732;BME280;65656;51.130;13.658;2023-02-28T04:06:45;100713.41;;;-5.25;99.00
76732;BME280;65656;51.130;13.658;2023-02-28T04:11:01;100724.06;;;-5.37;99.27
76732;BME280;65656;51.130;13.658;2023-02-28T04:15:08;100722.06;;;-5.46;99.43
76732;BME280;65656;51.130;13.658;2023-02-28T04:19:11;100724.16;;;-5.38;100.00
76732;BME280;65656;51.130;13.658;2023-02-28T04:23:13;100730.25;;;-5.36;100.00
76732;BME280;65656;51.130;13.658;2023-02-28T04:27:14;100731.69;;;-5.43;100.00
76732;BME280;65656;51.130;13.658;2023-02-28T04:31:17;100734.69;;;-5.48;100.00
76732;BME280;65656;51.130;13.658;2023-02-28T04:35:19;100738.19;;;-5.58;100.00
76732;BME280;65656;51.130;13.658;2023-02-28T04:39:21;100732.47;;;-5.54;100.00
76732;BME280;65656;51.130;13.658;2023-02-28T04:43:23;100738.19;;;-5.58;100.00
76732;BME280;65656;51.130;13.658;2023-02-28T04:47:25;100728.94;;;-5.54;100.00
76732;BME280;65656;51.130;13.658;2023-02-28T04:51:27;100734.63;;;-5.35;100.00
76732;BME280;65656;51.130;13.658;2023-02-28T04:55:29;100732.38;;;-5.52;100.00
76732;BME280;65656;51.130;13.658;2023-02-28T04:59:30;100744.41;;;-5.71;100.00
76732;BME280;65656;51.130;13.658;2023-02-28T05:03:33;100739.16;;;-5.83;100.00
76732;BME280;65656;51.130;13.658;2023-02-28T05:07:35;100732.44;;;-5.89;100.00
76732;BME280;65656;51.130;13.658;2023-02-28T05:11:36;100736.66;;;-5.98;100.00
76732;BME280;65656;51.130;13.658;2023-02-28T05:15:38;100736.88;;;-6.01;100.00
76732;BME280;65656;51.130;13.658;2023-02-28T05:19:40;100744.81;;;-5.88;100.00
76732;BME280;65656;51.130;13.658;2023-02-28T05:23:42;100749.59;;;-6.04;100.00
76732;BME280;65656;51.130;13.658;2023-02-28T05:27:43;100747.91;;;-6.05;100.00
76732;BME280;65656;51.130;13.658;2023-02-28T05:31:46;100749.59;;;-6.04;100.00
76732;BME280;65656;51.130;13.658;2023-02-28T05:35:49;100747.75;;;-5.91;100.00
76732;BME280;65656;51.130;13.658;2023-02-28T05:39:50;100745.13;;;-6.04;100.00
76732;BME280;65656;51.130;13.658;2023-02-28T05:43:52;100754.41;;;-6.09;100.00
76732;BME280;65656;51.130;13.658;2023-02-28T05:47:53;100757.97;;;-6.22;100.00
76732;BME280;65656;51.130;13.658;2023-02-28T05:51:56;100749.50;;;-6.15;100.00
76732;BME280;65656;51.130;13.658;2023-02-28T05:55:58;100748.03;;;-6.20;100.00
76732;BME280;65656;51.130;13.658;2023-02-28T06:00:00;100754.84;;;-6.15;100.00
76732;BME280;65656;51.130;13.658;2023-02-28T06:04:03;100754.41;;;-6.09;100.00
76732;BME280;65656;51.130;13.658;2023-02-28T06:08:06;100767.63;;;-6.08;100.00
76732;BME280;65656;51.130;13.658;2023-02-28T06:12:07;100776.09;;;-5.90;100.00
76732;BME280;65656;51.130;13.658;2023-02-28T06:16:10;100775.44;;;-5.81;100.00
76732;BME280;65656;51.130;13.658;2023-02-28T06:20:12;100786.03;;;-5.68;100.00
76732;BME280;65656;51.130;13.658;2023-02-28T06:24:15;100783.63;;;-5.95;99.15
76732;BME280;65656;51.130;13.658;2023-02-28T06:28:16;100786.22;;;-6.06;98.98
76732;BME280;65656;51.130;13.658;2023-02-28T06:32:18;100790.50;;;-6.17;98.32
76732;BME280;65656;51.130;13.658;2023-02-28T06:36:19;100793.69;;;-6.11;99.44
76732;BME280;65656;51.130;13.658;2023-02-28T06:40:22;100798.38;;;-6.02;100.00
76732;BME280;65656;51.130;13.658;2023-02-28T06:44:24;100809.03;;;-6.02;99.73
76732;BME280;65656;51.130;13.658;2023-02-28T06:48:26;100803.47;;;-5.99;99.80
76732;BME280;65656;51.130;13.658;2023-02-28T06:52:29;100815.09;;;-6.00;99.35
76732;BME280;65656;51.130;13.658;2023-02-28T06:56:32;100826.31;;;-5.95;99.80
76732;BME280;65656;51.130;13.658;2023-02-28T07:00:33;100828.59;;;-5.78;100.00
76732;BME280;65656;51.130;13.658;2023-02-28T07:04:34;100824.78;;;-5.63;100.00
76732;BME280;65656;51.130;13.658;2023-02-28T07:08:36;100837.59;;;-5.31;100.00
76732;BME280;65656;51.130;13.658;2023-02-28T07:12:39;100832.50;;;-4.99;100.00
76732;BME280;65656;51.130;13.658;2023-02-28T07:16:41;100832.25;;;-4.72;98.79
76732;BME280;65656;51.130;13.658;2023-02-28T07:20:42;100829.13;;;-4.55;96.01
76732;BME280;65656;51.130;13.658;2023-02-28T07:24:44;100823.28;;;-4.37;94.86
76732;BME280;65656;51.130;13.658;2023-02-28T07:28:47;100819.78;;;-4.15;95.00
76732;BME280;65656;51.130;13.658;2023-02-28T07:32:49;100838.63;;;-4.06;93.82
76732;BME280;65656;51.130;13.658;2023-02-28T07:36:52;100833.53;;;-3.86;94.63
76732;BME280;65656;51.130;13.658;2023-02-28T07:40:54;100841.53;;;-3.75;92.91
76732;BME280;65656;51.130;13.658;2023-02-28T07:44:57;100832.25;;;-3.49;92.83
76732;BME280;65656;51.130;13.658;2023-02-28T07:48:58;100840.16;;;-3.47;90.50
76732;BME280;65656;51.130;13.658;2023-02-28T07:53:00;100835.16;;;-3.41;91.15
76732;BME280;65656;51.130;13.658;2023-02-28T07:57:02;100835.84;;;-3.27;89.40
76732;BME280;65656;51.130;13.658;2023-02-28T08:01:09;100840.53;;;-3.09;90.29
76732;BME280;65656;51.130;13.658;2023-02-28T08:05:11;100839.44;;;-3.06;88.52
76732;BME280;65656;51.130;13.658;2023-02-28T08:09:13;100834.75;;;-2.93;86.96
76732;BME280;65656;51.130;13.658;2023-02-28T08:13:14;100839.66;;;-2.77;88.39
76732;BME280;65656;51.130;13.658;2023-02-28T08:17:17;100844.53;;;-2.71;87.42
76732;BME280;65656;51.130;13.658;2023-02-28T08:21:19;100838.28;;;-2.30;87.81
76732;BME280;65656;51.130;13.658;2023-02-28T08:25:21;100834.63;;;-2.29;85.62
76732;BME280;65656;51.130;13.658;2023-02-28T08:29:23;100838.59;;;-2.23;85.03
76732;BME280;65656;51.130;13.658;2023-02-28T08:33:27;100844.19;;;-2.05;85.66
76732;BME280;65656;51.130;13.658;2023-02-28T08:37:28;100835.13;;;-1.74;84.52
76732;BME280;65656;51.130;13.658;2023-02-28T08:41:30;100839.97;;;-1.67;84.20
76732;BME280;65656;51.130;13.658;2023-02-28T08:45:32;100850.72;;;-1.67;82.55
76732;BME280;65656;51.130;13.658;2023-02-28T08:49:36;100853.28;;;-1.56;82.39
76732;BME280;65656;51.130;13.658;2023-02-28T08:53:39;100850.22;;;-1.32;82.66
76732;BME280;65656;51.130;13.658;2023-02-28T08:57:40;100855.22;;;-1.28;80.70
76732;BME280;65656;51.130;13.658;2023-02-28T09:01:42;100849.13;;;-1.10;77.96
76732;BME280;65656;51.130;13.658;2023-02-28T09:05:53;100849.72;;;-0.97;78.27
76732;BME280;65656;51.130;13.658;2023-02-28T09:09:55;100849.72;;;-1.07;76.54
76732;BME280;65656;51.130;13.658;2023-02-28T09:13:57;100838.81;;;-0.86;75.97
76732;BME280;65656;51.130;13.658;2023-02-28T09:17:59;100840.69;;;-0.77;74.84
76732;BME280;65656;51.130;13.658;2023-02-28T09:22:02;100841.22;;;-0.64;74.11
76732;BME280;65656;51.130;13.658;2023-02-28T09:26:04;100840.66;;;-0.67;73.86
76732;BME280;65656;51.130;13.658;2023-02-28T09:30:07;100840.09;;;-0.71;74.72
76732;BME280;65656;51.130;13.658;2023-02-28T09:34:09;100844.06;;;-0.75;72.94
76732;BME280;65656;51.130;13.658;2023-02-28T09:38:12;100834.69;;;-0.71;70.11
76732;BME280;65656;51.130;13.658;2023-02-28T09:42:30;100841.22;;;-0.64;70.36
76732;BME280;65656;51.130;13.658;2023-02-28T09:46:34;100831.13;;;-0.42;71.54
76732;BME280;65656;51.130;13.658;2023-02-28T09:50:41;100836.09;;;-0.47;70.51
76732;BME280;65656;51.130;13.658;2023-02-28T09:54:44;100825.75;;;-0.42;70.27
76732;BME280;65656;51.130;13.658;2023-02-28T09:58:49;100840.94;;;-0.51;72.42
76732;BME280;65656;51.130;13.658;2023-02-28T10:03:02;100836.06;;;-0.28;72.92
76732;BME280;65656;51.130;13.658;2023-02-28T10:07:15;100838.66;;;-0.46;70.58
76732;BME280;65656;51.130;13.658;2023-02-28T10:11:20;100837.22;;;-0.40;69.04
76732;BME280;65656;51.130;13.658;2023-02-28T10:15:23;100836.75;;;-0.26;67.19
76732;BME280;65656;51.130;13.658;2023-02-28T10:19:29;100834.38;;;-0.29;67.27
76732;BME280;65656;51.130;13.658;2023-02-28T10:23:35;100840.63;;;-0.38;66.04
76732;BME280;65656;51.130;13.658;2023-02-28T10:27:39;100842.53;;;-0.11;67.49
76732;BME280;65656;51.130;13.658;2023-02-28T10:31:41;100836.75;;;-0.26;65.51
76732;BME280;65656;51.130;13.658;2023-02-28T10:35:42;100842.31;;;-0.37;65.53
76732;BME280;65656;51.130;13.658;2023-02-28T10:39:46;100848.41;;;-0.35;66.40
76732;BME280;65656;51.130;13.658;2023-02-28T10:43:49;100841.31;;;-0.36;64.35
76732;BME280;65656;51.130;13.658;2023-02-28T10:47:53;100837.44;;;-0.24;68.62
76732;BME280;65656;51.130;13.658;2023-02-28T10:51:57;100827.56;;;-0.33;66.21
76732;BME280;65656;51.130;13.658;2023-02-28T10:56:00;100826.97;;;-0.27;66.63
76732;BME280;65656;51.130;13.658;2023-02-28T11:00:14;100823.03;;;-0.33;68.01
76732;BME280;65656;51.130;13.658;2023-02-28T11:04:18;100819.50;;;-0.43;66.84
76732;BME280;65656;51.130;13.658;2023-02-28T11:08:19;100821.66;;;-0.46;68.21
76732;BME280;65656;51.130;13.658;2023-02-28T11:12:23;100824.38;;;-0.66;69.26
76732;BME280;65656;51.130;13.658;2023-02-28T11:16:36;100816.00;;;-0.53;69.15
76732;BME280;65656;51.130;13.658;2023-02-28T11:20:38;100809.09;;;-0.18;68.18
76732;BME280;65656;51.130;13.658;2023-02-28T11:24:43;100809.50;;;-0.60;69.94
76732;BME280;65656;51.130;13.658;2023-02-28T11:28:45;100813.72;;;-0.58;70.18
76732;BME280;65656;51.130;13.658;2023-02-28T11:32:49;100808.78;;;-0.06;67.41
76732;BME280;65656;51.130;13.658;2023-02-28T11:36:52;100799.91;;;0.12;67.32
76732;BME280;65656;51.130;13.658;2023-02-28T11:41:06;100801.53;;;0.32;65.78
76732;BME280;65656;51.130;13.658;2023-02-28T11:45:31;100794.34;;;-0.24;66.77
76732;BME280;65656;51.130;13.658;2023-02-28T11:49:45;100793.31;;;-0.04;65.95
76732;BME280;65656;51.130;13.658;2023-02-28T11:54:07;100790.75;;;0.22;65.09
76732;BME280;65656;51.130;13.658;2023-02-28T11:58:37;100783.84;;;0.47;64.83
76732;BME280;65656;51.130;13.658;2023-02-28T12:02:54;100776.19;;;0.43;65.12
76732;BME280;65656;51.130;13.658;2023-02-28T12:07:07;100780.59;;;0.62;65.34
76732;BME280;65656;51.130;13.658;2023-02-28T12:11:19;100780.59;;;0.62;64.89
76732;BME280;65656;51.130;13.658;2023-02-28T12:15:53;100784.94;;;0.72;64.89
76732;BME280;65656;51.130;13.658;2023-02-28T12:20:08;100771.69;;;0.79;64.75
76732;BME280;65656;51.130;13.658;2023-02-28T12:24:26;100768.19;;;0.69;63.50
76732;BME280;65656;51.130;13.658;2023-02-28T12:28:34;100766.44;;;0.95;63.28
76732;BME280;65656;51.130;13.658;2023-02-28T12:32:38;100773.06;;;0.83;61.32
76732;BME280;65656;51.130;13.658;2023-02-28T12:36:43;100764.88;;;1.10;61.99
76732;BME280;65656;51.130;13.658;2023-02-28T12:40:51;100770.75;;;1.32;61.64
76732;BME280;65656;51.130;13.658;2023-02-28T12:44:56;100769.91;;;1.49;61.80
76732;BME280;65656;51.130;13.658;2023-02-28T12:49:05;100770.72;;;1.76;61.76
76732;BME280;65656;51.130;13.658;2023-02-28T12:53:11;100777.09;;;1.66;60.46
76732;BME280;65656;51.130;13.658;2023-02-28T12:57:19;100765.63;;;1.21;59.63
76732;BME280;65656;51.130;13.658;2023-02-28T13:01:36;100758.28;;;1.83;62.88
76732;BME280;65656;51.130;13.658;2023-02-28T13:06:07;100757.50;;;1.64;61.69
76732;BME280;65656;51.130;13.658;2023-02-28T13:10:12;100764.50;;;1.31;61.56
76732;BME280;65656;51.130;13.658;2023-02-28T13:14:21;100749.25;;;2.08;60.61
76732;BME280;65656;51.130;13.658;2023-02-28T13:18:29;100746.56;;;4.12;57.15
76732;BME280;65656;51.130;13.658;2023-02-28T13:22:45;100754.56;;;2.93;60.65
76732;BME280;65656;51.130;13.658;2023-02-28T13:31:34;100736.59;;;2.59;56.89
76732;BME280;65656;51.130;13.658;2023-02-28T13:36:10;100743.28;;;1.62;61.27
76732;BME280;65656;51.130;13.658;2023-02-28T13:40:30;100743.06;;;1.82;59.43
76732;BME280;65656;51.130;13.658;2023-02-28T13:49:25;100731.13;;;1.58;61.17
76732;BME280;65656;51.130;13.658;2023-02-28T13:53:48;100727.06;;;1.62;60.97
76732;BME280;65656;51.130;13.658;2023-02-28T13:58:12;100726.19;;;1.28;62.31
76732;BME280;65656;51.130;13.658;2023-02-28T14:02:37;100714.81;;;1.42;64.51
76732;BME280;65656;51.130;13.658;2023-02-28T14:06:48;100709.88;;;1.11;63.12
76732;BME280;65656;51.130;13.658;2023-02-28T14:11:03;100712.81;;;1.18;64.81
76732;BME280;65656;51.130;13.658;2023-02-28T14:15:26;100714.59;;;1.09;62.26
76732;BME280;65656;51.130;13.658;2023-02-28T14:19:30;100711.19;;;1.25;62.93
76732;BME280;65656;51.130;13.658;2023-02-28T14:23:43;100707.41;;;1.44;64.55
76732;BME280;65656;51.130;13.658;2023-02-28T14:27:50;100706.09;;;1.48;61.46
76732;BME280;65656;51.130;13.658;2023-02-28T14:31:58;100701.84;;;1.20;63.48
76732;BME280;65656;51.130;13.658;2023-02-28T14:36:07;100705.28;;;1.04;61.28
76732;BME280;65656;51.130;13.658;2023-02-28T14:40:14;100690.88;;;0.95;65.23
76732;BME280;65656;51.130;13.658;2023-02-28T14:44:18;100692.44;;;0.80;64.45
76732;BME280;65656;51.130;13.658;2023-02-28T14:48:20;100695.59;;;0.75;67.06
76732;BME280;65656;51.130;13.658;2023-02-28T14:52:24;100692.59;;;0.61;64.13
76732;BME280;65656;51.130;13.658;2023-02-28T14:56:31;100690.59;;;0.63;64.22
76732;BME280;65656;51.130;13.658;2023-02-28T15:00:35;100696.63;;;0.57;64.82
76732;BME280;65656;51.130;13.658;2023-02-28T15:04:37;100693.91;;;0.57;67.36
76732;BME280;65656;51.130;13.658;2023-02-28T15:08:39;100701.69;;;0.60;64.42
76732;BME280;65656;51.130;13.658;2023-02-28T15:12:47;100696.00;;;0.63;64.98
76732;BME280;65656;51.130;13.658;2023-02-28T15:16:52;100700.00;;;0.59;65.94
76732;BME280;65656;51.130;13.658;2023-02-28T15:21:00;100699.38;;;0.65;65.81
76732;BME280;65656;51.130;13.658;2023-02-28T15:25:04;100700.00;;;0.59;67.33
76732;BME280;65656;51.130;13.658;2023-02-28T15:29:13;100696.91;;;0.53;65.34
76732;BME280;65656;51.130;13.658;2023-02-28T15:33:20;100685.03;;;0.46;65.43
76732;BME280;65656;51.130;13.658;2023-02-28T15:37:37;100689.06;;;0.42;67.20
76732;BME280;65656;51.130;13.658;2023-02-28T15:41:39;100693.03;;;0.38;66.72
76732;BME280;65656;51.130;13.658;2023-02-28T15:45:45;100698.91;;;0.16;69.09
76732;BME280;65656;51.130;13.658;2023-02-28T15:49:49;100699.75;;;0.16;66.91
76732;BME280;65656;51.130;13.658;2023-02-28T15:53:56;100701.78;;;0.05;69.52
76732;BME280;65656;51.130;13.658;2023-02-28T15:58:01;100698.69;;;-0.01;70.21
76732;BME280;65656;51.130;13.658;2023-02-28T16:02:16;100699.69;;;-0.02;69.17
76732;BME280;65656;51.130;13.658;2023-02-28T16:06:38;100690.22;;;-0.06;69.80
76732;BME280;65656;51.130;13.658;2023-02-28T16:10:40;100692.53;;;-0.11;69.66
76732;BME280;65656;51.130;13.658;2023-02-28T16:14:41;100696.13;;;-0.20;69.72
76732;BME280;65656;51.130;13.658;2023-02-28T16:18:44;100693.47;;;-0.30;70.28
76732;BME280;65656;51.130;13.658;2023-02-28T16:22:46;100700.59;;;-0.38;70.54
76732;BME280;65656;51.130;13.658;2023-02-28T16:26:49;100706.00;;;-0.48;70.55
76732;BME280;65656;51.130;13.658;2023-02-28T16:30:52;100701.84;;;-0.70;70.70
76732;BME280;65656;51.130;13.658;2023-02-28T16:34:55;100702.19;;;-0.92;72.28
76732;BME280;65656;51.130;13.658;2023-02-28T16:38:57;100698.81;;;-1.14;73.34
76732;BME280;65656;51.130;13.658;2023-02-28T16:42:59;100712.69;;;-1.28;75.11
76732;BME280;65656;51.130;13.658;2023-02-28T16:47:02;100706.50;;;-1.38;73.72
76732;BME280;65656;51.130;13.658;2023-02-28T16:51:06;100713.28;;;-1.53;76.37
76732;BME280;65656;51.130;13.658;2023-02-28T16:55:08;100708.84;;;-1.74;76.23
76732;BME280;65656;51.130;13.658;2023-02-28T16:59:10;100706.44;;;-1.86;76.70
76732;BME280;65656;51.130;13.658;2023-02-28T17:03:20;100710.78;;;-1.95;78.34
76732;BME280;65656;51.130;13.658;2023-02-28T17:07:34;100717.28;;;-1.98;77.54
76732;BME280;65656;51.130;13.658;2023-02-28T17:11:36;100715.13;;;-2.13;78.52
76732;BME280;65656;51.130;13.658;2023-02-28T17:15:38;100718.41;;;-2.10;79.55
76732;BME280;65656;51.130;13.658;2023-02-28T17:19:39;100727.31;;;-2.09;78.61
76732;BME280;65656;51.130;13.658;2023-02-28T17:23:42;100718.84;;;-2.05;77.89
76732;BME280;65656;51.130;13.658;2023-02-28T17:27:44;100716.28;;;-2.06;78.73
76732;BME280;65656;51.130;13.658;2023-02-28T17:31:46;100726.31;;;-2.08;78.58
76732;BME280;65656;51.130;13.658;2023-02-28T17:35:48;100720.22;;;-2.10;78.14
76732;BME280;65656;51.130;13.658;2023-02-28T17:39:50;100723.91;;;-2.11;79.20
76732;BME280;65656;51.130;13.658;2023-02-28T17:43:52;100725.88;;;-2.13;80.20
76732;BME280;65656;51.130;13.658;2023-02-28T17:47:53;100725.25;;;-2.27;78.94
76732;BME280;65656;51.130;13.658;2023-02-28T17:51:55;100718.97;;;-2.46;79.26
76732;BME280;65656;51.130;13.658;2023-02-28T17:55:58;100721.81;;;-2.48;82.49
76732;BME280;65656;51.130;13.658;2023-02-28T18:00:00;100707.66;;;-2.50;81.83
76732;BME280;65656;51.130;13.658;2023-02-28T18:04:04;100712.13;;;-2.60;79.92
76732;BME280;65656;51.130;13.658;2023-02-28T18:08:05;100710.31;;;-2.81;79.43
76732;BME280;65656;51.130;13.658;2023-02-28T18:12:08;100708.00;;;-2.95;80.50
76732;BME280;65656;51.130;13.658;2023-02-28T18:16:10;100710.88;;;-3.08;80.59
76732;BME280;65656;51.130;13.658;2023-02-28T18:20:12;100714.41;;;-3.07;83.00
76732;BME280;65656;51.130;13.658;2023-02-28T18:24:14;100709.34;;;-3.21;83.07
76732;BME280;65656;51.130;13.658;2023-02-28T18:28:17;100708.13;;;-3.17;85.54
76732;BME280;65656;51.130;13.658;2023-02-28T18:32:19;100704.72;;;-3.19;87.34
76732;BME280;65656;51.130;13.658;2023-02-28T18:36:21;100710.06;;;-3.19;86.10
76732;BME280;65656;51.130;13.658;2023-02-28T18:40:22;100719.69;;;-3.17;85.10
76732;BME280;65656;51.130;13.658;2023-02-28T18:44:25;100713.22;;;-3.14;82.65
76732;BME280;65656;51.130;13.658;2023-02-28T18:48:26;100719.09;;;-3.20;83.37
76732;BME280;65656;51.130;13.658;2023-02-28T18:52:28;100705.50;;;-3.28;81.20
76732;BME280;65656;51.130;13.658;2023-02-28T18:56:29;100710.81;;;-3.17;86.99
76732;BME280;65656;51.130;13.658;2023-02-28T19:00:32;100707.19;;;-3.27;84.12
76732;BME280;65656;51.130;13.658;2023-02-28T19:04:34;100717.00;;;-3.38;83.36
76732;BME280;65656;51.130;13.658;2023-02-28T19:08:36;100709.88;;;-3.48;84.47
76732;BME280;65656;51.130;13.658;2023-02-28T19:12:38;100716.00;;;-3.57;86.32
76732;BME280;65656;51.130;13.658;2023-02-28T19:16:41;100716.16;;;-3.70;86.38
76732;BME280;65656;51.130;13.658;2023-02-28T19:20:44;100720.31;;;-3.77;87.14
76732;BME280;65656;51.130;13.658;2023-02-28T19:24:46;100720.31;;;-3.77;86.77
76732;BME280;65656;51.130;13.658;2023-02-28T19:28:47;100717.69;;;-3.88;87.76
76732;BME280;65656;51.130;13.658;2023-02-28T19:32:50;100717.81;;;-4.01;87.00
76732;BME280;65656;51.130;13.658;2023-02-28T19:36:52;100723.31;;;-4.03;88.35
76732;BME280;65656;51.130;13.658;2023-02-28T19:40:59;100723.03;;;-4.00;87.98
76732;BME280;65656;51.130;13.658;2023-02-28T19:45:02;100713.56;;;-4.04;88.94
76732;BME280;65656;51.130;13.658;2023-02-28T19:49:05;100710.28;;;-3.96;88.06
76732;BME280;65656;51.130;13.658;2023-02-28T19:53:06;100726.94;;;-3.93;89.59
76732;BME280;65656;51.130;13.658;2023-02-28T19:57:08;100728.44;;;-4.11;88.45
76732;BME280;65656;51.130;13.658;2023-02-28T20:01:11;100730.13;;;-4.10;91.33
76732;BME280;65656;51.130;13.658;2023-02-28T20:05:14;100732.34;;;-4.26;89.14
76732;BME280;65656;51.130;13.658;2023-02-28T20:09:16;100733.44;;;-4.17;89.64
76732;BME280;65656;51.130;13.658;2023-02-28T20:13:18;100732.44;;;-4.16;89.86
76732;BME280;65656;51.130;13.658;2023-02-28T20:17:23;100727.97;;;-4.27;90.56
76732;BME280;65656;51.130;13.658;2023-02-28T20:21:26;100730.75;;;-4.29;91.37
76732;BME280;65656;51.130;13.658;2023-02-28T20:25:27;100727.72;;;-4.24;91.20
76732;BME280;65656;51.130;13.658;2023-02-28T20:29:29;100734.75;;;-4.23;93.14
76732;BME280;65656;51.130;13.658;2023-02-28T20:33:30;100733.06;;;-4.24;92.50
76732;BME280;65656;51.130;13.658;2023-02-28T20:37:33;100727.00;;;-4.26;90.66
76732;BME280;65656;51.130;13.658;2023-02-28T20:41:35;100730.63;;;-4.38;91.03
76732;BME280;65656;51.130;13.658;2023-02-28T20:45:36;100735.03;;;-4.49;91.31
76732;BME280;65656;51.130;13.658;2023-02-28T20:49:38;100739.41;;;-4.59;90.99
76732;BME280;65656;51.130;13.658;2023-02-28T20:53:41;100743.03;;;-4.37;93.93
76732;BME280;65656;51.130;13.658;2023-02-28T20:57:43;100743.78;;;-4.46;92.53
76732;BME280;65656;51.130;13.658;2023-02-28T21:01:44;100748.28;;;-4.47;91.58
76732;BME280;65656;51.130;13.658;2023-02-28T21:05:46;100741.47;;;-4.51;92.85
76732;BME280;65656;51.130;13.658;2023-02-28T21:09:48;100744.25;;;-4.53;92.25
76732;BME280;65656;51.130;13.658;2023-02-28T21:13:50;100737.19;;;-4.54;92.33
76732;BME280;65656;51.130;13.658;2023-02-28T21:17:52;100730.16;;;-4.43;94.08